Aeroporto :
LOGIN :

Iscrizione | Disclaimer

   EN    FR    IT 

 










Sommario :    VFR   VFR Marginale   IFR   IFR Intensivo   IFR Molto Intensivo
Visibilità : 
Base nubi : 
>= 8 km
>= 3000ft
5 / 8 km
1000 / 3000 ft
1500m / 5 km
500 / 1000 ft
800 / 1500m
200 / 500 ft
< 800m
< 200 ft
Simboli :   Temporali  Nebbia  Neve Forte  Precipitazioni Forti  Vento > 20 kt
SIGMETs :   Varie  Temporali  Ghiacco  Turbolenza  Onda orograficha  Ceneri Vulcaniche






- Altitudine del aeroporto : 122 ft
- Codice IATA : TXL


EDDT - Berlin Tegel Int.

ULTIMO METAR :
  • 250550Z 24009KT 2800 -DZ BR BKN003 00/00 Q1021 NOSIG

METARs OBSOLETI :
  • 250520Z 24008KT 2800 -DZ BR BKN003 00/00 Q1021 NOSIG
  • 250450Z 21005KT 2400 -DZ BR FEW002 BKN003 00/00 Q1020 NOSIG
  • 250420Z 23006KT 2300 -DZ BR SCT002 BKN003 00/00 Q1020 NOSIG
  • 250350Z 24007KT 2700 -DZ BR BKN003 00/00 Q1020 NOSIG
  • 250320Z 25007KT 3300 -DZ BR BKN003 00/00 Q1020

TAF COR TAF EDDT
Valido dal 25 a 06 ore il 26 a 06 ore UTC


250511Z 2506/2606 24010KT 3000 BR BKN003
TEMPO 2506/2509 2000 DZ
TEMPO 2509/2512 2000 -DZ
BECMG 2509/2512 6000 BKN008
TEMPO 2512/2519 BKN012
TEMPO 2521/2606 4000 BR BKN004



MetMap, La meteo Aeronautica in un colpo d'occhio ! - Copyright ORBIFLY Dicembre 2007 - Disclaimer

ORBIFLY MET'MAP TEAM :

Programmazione e sviluppo : Alexandra Zaïnal
Concezione : Baudouin d'Aumeries
Aiuto per la programmazione : Marc-Olivier Méhu
Supporto tecnico e logistico : Manuel Goepfert
Aiuto per la traduzione : Arnaldo La Scala

Contatto : metmap@orbifly.com




FONTI E CREDITI :

   NOAA